South River, Canada
Current Conditions -  °F | °C
As of 6:00 PM on Thursday 23 Oct 2014 (Local Time) from CYYB Reporting Station
Clear Clear  
Wind Chill: 50°   Ceiling: Unl
Heat Index: 50°   Visibility: 15mi
Dew Point: 37°   Wind: 5mph
Humidity: 62%   Direction: 260°W
Pressure: 30.08"   Gusts: NA
Location:  45.85°N, 79.37°W
Report Text: CYYB 232200Z 26004KT 15SM SKC 10/03 A3008 RMK SLP198
Loading
Personal Weather Stations






























Interactive Weather Map
Tropical Storm Tracking
New forecast layout! Learn more

10-Day Weather Forecast

Advertisements
Track Severe Weather on mobile